Time;durP1;ratioP1;P1;durP2;ratioP2;P2;SDS_P1;SDS_P2;PMS_P1;PMS_P2;Temp;Humidity;BMP_temperature;BMP_pressure;BME280_temperature;BME280_humidity;BME280_pressure;Samples;Min_cycle;Max_cycle;Signal;HPM_P1;HPM_P2
2021/05/18 00:00:21;;;;;;;3.30;2.78;;;13.90;56.30;;;;;;5043460;28;20043;-75
2021/05/18 00:02:47;;;;;;;5.30;3.25;;;13.80;56.30;;;;;;5028643;28;20130;-73
2021/05/18 00:05:15;;;;;;;4.18;3.38;;;13.70;56.20;;;;;;5047340;28;20491;-75
2021/05/18 00:07:50;;;;;;;3.42;2.90;;;13.70;56.30;;;;;;5029989;28;20036;-77
2021/05/18 00:13:01;;;;;;;3.75;2.95;;;13.60;56.30;;;;;;5045783;28;20067;-76
2021/05/18 00:15:27;;;;;;;3.53;3.22;;;13.60;56.30;;;;;;5029257;28;20044;-74
2021/05/18 00:17:53;;;;;;;5.25;3.67;;;13.50;56.30;;;;;;5029490;28;20495;-76
2021/05/18 00:20:19;;;;;;;3.10;2.72;;;13.50;57.00;;;;;;5029613;28;20074;-75
2021/05/18 00:22:47;;;;;;;3.35;3.03;;;13.50;56.50;;;;;;5045675;28;20028;-74
2021/05/18 00:25:14;;;;;;;5.35;3.00;;;13.50;57.10;;;;;;5045589;28;20479;-76
2021/05/18 00:27:41;;;;;;;4.53;2.72;;;13.40;56.40;;;;;;5029025;28;20025;-77
2021/05/18 00:30:10;;;;;;;5.15;3.00;;;13.40;56.50;;;;;;5046928;28;20029;-74
2021/05/18 00:32:36;;;;;;;4.20;3.45;;;13.30;56.40;;;;;;5046983;28;20232;-74
2021/05/18 00:35:04;;;;;;;3.60;3.05;;;13.30;56.50;;;;;;5046838;28;20029;-75
2021/05/18 00:37:30;;;;;;;3.78;2.90;;;13.30;56.50;;;;;;5047144;28;20922;-75
2021/05/18 00:39:56;;;;;;;3.50;3.10;;;13.30;56.60;;;;;;5046692;28;20029;-76
2021/05/18 00:42:23;;;;;;;5.72;2.60;;;13.20;56.50;;;;;;5045467;28;20029;-76
2021/05/18 00:44:50;;;;;;;3.60;2.92;;;13.20;56.60;;;;;;5028934;28;20040;-74
2021/05/18 00:47:17;;;;;;;4.30;3.13;;;13.10;56.40;;;;;;5046422;28;20391;-76
2021/05/18 00:49:43;;;;;;;3.08;2.80;;;13.10;56.50;;;;;;5046650;28;20499;-75
2021/05/18 00:52:09;;;;;;;4.63;3.03;;;13.10;56.60;;;;;;5045936;28;20029;-75
2021/05/18 00:59:55;;;;;;;3.55;3.22;;;13.00;56.60;;;;;;5046439;28;20044;-75
2021/05/18 01:02:22;;;;;;;3.67;2.65;;;12.90;56.50;;;;;;5046481;28;20395;-74
2021/05/18 01:04:55;;;;;;;3.03;2.75;;;12.90;56.50;;;;;;5045842;28;20039;-74
2021/05/18 01:07:21;;;;;;;4.53;3.03;;;12.90;56.60;;;;;;5047070;28;20090;-74
2021/05/18 01:09:48;;;;;;;4.22;3.05;;;12.80;56.50;;;;;;5028237;28;20476;-76
2021/05/18 01:12:14;;;;;;;4.55;3.28;;;12.80;56.60;;;;;;5028930;28;20021;-74
2021/05/18 01:14:40;;;;;;;3.47;2.92;;;12.80;56.60;;;;;;5045270;28;20045;-75
2021/05/18 01:17:06;;;;;;;6.28;3.35;;;12.80;56.70;;;;;;5028500;28;20024;-74
2021/05/18 01:19:32;;;;;;;3.63;2.88;;;12.70;56.60;;;;;;5028098;28;20040;-76
2021/05/18 01:22:02;;;;;;;4.70;2.72;;;12.70;56.70;;;;;;5044949;28;20083;-74
2021/05/18 01:24:33;;;;;;;3.10;2.55;;;12.70;56.70;;;;;;5044397;28;20025;-73
2021/05/18 01:27:00;;;;;;;4.93;3.40;;;12.60;56.60;;;;;;5044812;28;20555;-76
2021/05/18 01:29:26;;;;;;;3.00;2.75;;;12.60;56.70;;;;;;5045713;28;20028;-75
2021/05/18 01:31:52;;;;;;;4.00;3.25;;;12.60;56.70;;;;;;5012513;28;20045;-75
2021/05/18 01:34:20;;;;;;;3.95;3.00;;;12.60;56.80;;;;;;5026107;28;20045;-73
2021/05/18 01:36:47;;;;;;;3.28;2.92;;;12.50;56.70;;;;;;5026178;28;20025;-74
2021/05/18 01:44:36;;;;;;;3.25;2.95;;;12.50;57.10;;;;;;5045989;28;20037;-74
2021/05/18 01:47:05;;;;;;;3.33;2.85;;;12.40;56.90;;;;;;5054160;23;20057;-88
2021/05/18 01:49:38;;;;;;;2.97;2.65;;;12.40;56.90;;;;;;5076345;28;20031;-83
2021/05/18 01:52:10;;;;;;;5.05;2.67;;;12.40;57.00;;;;;;5064247;28;20027;-84
2021/05/18 01:54:50;;;;;;;3.50;2.75;;;12.40;57.10;;;;;;5096541;28;20137;-86
2021/05/18 01:57:47;;;;;;;;;;;12.40;57.10;;;;;;5080173;28;20031;-86
2021/05/18 02:01:39;;;;;;;3.63;3.05;;;12.40;57.00;;;;;;5107644;28;19907;-85
2021/05/18 02:04:32;;;;;;;4.78;3.00;;;12.40;56.90;;;;;;5095150;28;20062;-85
2021/05/18 02:08:07;;;;;;;4.03;3.38;;;12.30;56.90;;;;;;5096797;28;20474;-85
2021/05/18 02:11:01;;;;;;;3.97;2.83;;;12.30;56.90;;;;;;5093772;28;20038;-83
2021/05/18 02:13:28;;;;;;;3.70;2.70;;;12.30;56.80;;;;;;5077740;28;20046;-84
2021/05/18 02:16:05;;;;;;;5.63;3.72;;;12.20;56.70;;;;;;5094257;28;20028;-84
2021/05/18 02:26:35;;;;;;;2.63;2.42;;;12.20;57.10;;;;;;5097621;28;20028;-86
2021/05/18 02:29:10;;;;;;;3.10;2.80;;;12.20;57.20;;;;;;5081629;28;20393;-85
2021/05/18 02:31:38;;;;;;;2.63;2.42;;;12.20;57.30;;;;;;5065810;28;20498;-84
2021/05/18 02:34:23;;;;;;;6.57;2.72;;;12.20;57.30;;;;;;5083524;28;20055;-85
2021/05/18 02:36:51;;;;;;;6.25;2.72;;;12.20;57.30;;;;;;5080446;28;20028;-85
2021/05/18 02:39:18;;;;;;;3.22;2.78;;;12.30;57.50;;;;;;5082253;28;20027;-84
2021/05/18 02:42:11;;;;;;;4.88;3.25;;;12.20;57.40;;;;;;5082299;28;20486;-84
2021/05/18 02:45:00;;;;;;;3.08;2.80;;;12.30;57.60;;;;;;5087588;28;20032;-83
2021/05/18 02:50:21;;;;;;;3.55;2.50;;;12.30;57.50;;;;;;5097516;28;20023;-84
2021/05/18 02:52:51;;;;;;;2.70;2.50;;;12.30;57.50;;;;;;5081278;28;20032;-86
2021/05/18 02:58:02;;;;;;;3.42;2.83;;;12.30;57.50;;;;;;5084398;28;20110;-86
2021/05/18 03:00:31;;;;;;;3.05;2.70;;;12.30;57.50;;;;;;5081852;28;20028;-86
2021/05/18 03:03:03;;;;;;;4.45;3.20;;;12.30;57.50;;;;;;5080880;28;20506;-85
2021/05/18 03:05:52;;;;;;;3.05;2.75;;;12.30;57.60;;;;;;5099348;28;20024;-85
2021/05/18 03:08:25;;;;;;;2.72;2.42;;;12.30;57.60;;;;;;5098769;28;20043;-86
2021/05/18 03:10:59;;;;;;;3.55;2.60;;;12.30;58.10;;;;;;5084101;28;20109;-86
2021/05/18 03:13:36;;;;;;;2.65;2.45;;;12.30;57.60;;;;;;5100930;28;20406;-85
2021/05/18 03:16:12;;;;;;;3.28;2.63;;;12.30;57.70;;;;;;5085788;28;20523;-88
2021/05/18 03:18:39;;;;;;;3.80;2.90;;;12.30;57.80;;;;;;5099890;28;20179;-89
2021/05/18 03:21:05;;;;;;;3.25;2.92;;;12.30;57.80;;;;;;5082328;28;20031;-87
2021/05/18 03:23:31;;;;;;;3.42;2.55;;;12.30;57.80;;;;;;5098778;28;20399;-89
2021/05/18 03:25:58;;;;;;;3.05;2.55;;;12.20;57.70;;;;;;5082149;28;20073;-87
2021/05/18 03:28:26;;;;;;;2.97;2.67;;;12.30;57.90;;;;;;5065308;28;20035;-90
2021/05/18 03:36:11;;;;;;;2.97;2.67;;;12.30;58.00;;;;;;5082997;28;20451;-84
2021/05/18 03:38:47;;;;;;;3.83;2.88;;;12.30;58.00;;;;;;5080840;28;20053;-84
2021/05/18 03:45:39;;;;;;;2.75;2.50;;;12.30;58.00;;;;;;5111168;28;20071;-84
2021/05/18 04:41:45;;;;;;;3.23;2.70;;;12.20;57.70;;;;;;5054280;28;20035;-86
2021/05/18 05:00:11;;;;;;;3.13;2.60;;;12.50;57.80;;;;;;5015182;28;20045;-86
2021/05/18 05:12:19;;;;;;;2.78;2.38;;;12.60;58.00;;;;;;5006511;28;20096;-84
2021/05/18 05:16:24;;;;;;;4.05;2.85;;;12.60;58.00;;;;;;4985323;28;20050;-84
2021/05/18 05:18:55;;;;;;;2.88;2.58;;;12.70;58.10;;;;;;5051624;28;20145;-87
2021/05/18 05:21:32;;;;;;;3.20;2.90;;;12.70;58.10;;;;;;5014656;28;20037;-86
2021/05/18 05:23:59;;;;;;;3.10;2.70;;;12.70;58.10;;;;;;5048288;28;20032;-92
2021/05/18 05:26:31;;;;;;;2.83;2.55;;;12.80;58.30;;;;;;5038135;28;20285;-82
2021/05/18 05:29:02;;;;;;;3.28;2.97;;;12.80;58.30;;;;;;5054032;28;20036;-87
2021/05/18 05:31:28;;;;;;;2.60;2.40;;;12.90;58.40;;;;;;5069656;28;20201;-83
2021/05/18 05:33:54;;;;;;;4.03;2.97;;;12.80;58.20;;;;;;5053250;28;20036;-81
2021/05/18 05:36:21;;;;;;;3.28;2.97;;;12.90;58.40;;;;;;5071326;28;20171;-88
2021/05/18 05:38:48;;;;;;;3.05;2.60;;;12.90;58.40;;;;;;5026332;28;20052;-85
2021/05/18 05:41:16;;;;;;;3.00;2.70;;;12.90;58.40;;;;;;5050154;28;20029;-81
2021/05/18 05:43:42;;;;;;;3.25;2.95;;;12.90;58.40;;;;;;5081472;28;20163;-81
2021/05/18 05:46:08;;;;;;;3.83;2.92;;;13.00;58.60;;;;;;5092931;28;20039;-83
2021/05/18 05:48:35;;;;;;;3.97;2.42;;;13.10;58.70;;;;;;5073138;28;20043;-83
2021/05/18 05:51:03;;;;;;;2.92;2.65;;;13.20;58.90;;;;;;5073463;28;20053;-83
2021/05/18 05:53:50;;;;;;;3.30;2.80;;;13.20;58.80;;;;;;5090778;28;20569;-83
2021/05/18 05:56:26;;;;;;;3.90;2.95;;;13.30;58.80;;;;;;5057886;28;20036;-84
2021/05/18 05:59:19;;;;;;;2.70;2.38;;;13.30;58.70;;;;;;5072726;28;20039;-85
2021/05/18 06:02:04;;;;;;;3.15;2.72;;;13.40;58.90;;;;;;5112785;28;20039;-85
2021/05/18 06:04:31;;;;;;;3.13;2.80;;;13.40;58.80;;;;;;5095573;28;20117;-86
2021/05/18 06:06:58;;;;;;;5.13;3.13;;;13.40;58.80;;;;;;5077915;28;20485;-85
2021/05/18 06:09:28;;;;;;;2.50;2.30;;;13.50;58.90;;;;;;5081394;28;20081;-87
2021/05/18 06:14:49;;;;;;;3.58;2.75;;;13.50;59.00;;;;;;5094679;28;20040;-84
2021/05/18 06:47:30;;;;;;;4.30;2.30;;;16.40;62.60;;;;;;5112852;28;20461;-90
2021/05/18 06:52:44;;;;;;;3.80;2.38;;;17.10;62.60;;;;;;5115443;28;20030;-83
2021/05/18 06:55:16;;;;;;;3.30;2.13;;;17.30;62.40;;;;;;5096846;28;20024;-92
2021/05/18 06:57:49;;;;;;;2.65;2.10;;;17.40;62.30;;;;;;5097535;28;20036;-84
2021/05/18 07:00:19;;;;;;;2.30;2.10;;;17.60;62.30;;;;;;5096305;28;20072;-85
2021/05/18 07:02:48;;;;;;;2.92;2.13;;;17.60;62.00;;;;;;5086722;27;20023;-90
2021/05/18 07:05:27;;;;;;;3.53;2.20;;;17.70;61.90;;;;;;5099684;27;20047;-83
2021/05/18 07:10:37;;;;;;;3.50;2.20;;;17.70;61.40;;;;;;5095111;28;20066;-85
2021/05/18 07:13:03;;;;;;;2.08;1.88;;;17.60;61.20;;;;;;5113927;28;20032;-88
2021/05/18 07:15:29;;;;;;;2.05;1.80;;;17.60;61.20;;;;;;5117420;28;20122;-90
2021/05/18 07:17:56;;;;;;;3.00;1.70;;;17.40;60.80;;;;;;5116050;28;20394;-88
2021/05/18 07:20:22;;;;;;;3.80;2.10;;;17.40;60.90;;;;;;5096965;28;20020;-87
2021/05/18 07:22:56;;;;;;;3.13;1.80;;;17.30;60.80;;;;;;5114820;28;20032;-94
2021/05/18 07:25:23;;;;;;;2.88;1.63;;;17.10;60.50;;;;;;5079789;28;20049;-91
2021/05/18 07:27:50;;;;;;;2.13;1.90;;;17.00;60.40;;;;;;5078910;28;20028;-92
2021/05/18 07:30:16;;;;;;;1.65;1.55;;;16.90;60.40;;;;;;5093105;28;20386;-82
2021/05/18 07:32:43;;;;;;;2.05;1.70;;;16.90;60.50;;;;;;5075529;28;20031;-85
2021/05/18 07:35:11;;;;;;;2.45;1.90;;;16.70;60.30;;;;;;5110626;28;20039;-83
2021/05/18 07:37:38;;;;;;;2.97;1.88;;;16.60;60.20;;;;;;5076164;28;20043;-83
2021/05/18 07:40:06;;;;;;;2.80;1.70;;;16.60;60.30;;;;;;5076433;28;20547;-83
2021/05/18 07:42:32;;;;;;;2.03;1.80;;;16.60;60.40;;;;;;5093498;28;20035;-85
2021/05/18 07:45:00;;;;;;;3.55;2.13;;;16.60;60.40;;;;;;5094299;28;20098;-86
2021/05/18 07:47:31;;;;;;;2.53;2.10;;;16.60;60.30;;;;;;5096778;28;20494;-91
2021/05/18 07:50:06;;;;;;;2.53;1.60;;;16.70;60.40;;;;;;5095357;28;20094;-86
2021/05/18 08:02:19;;;;;;;4.13;2.05;;;17.20;60.50;;;;;;5097241;28;20047;-85
2021/05/18 08:06:42;;;;;;;2.40;1.75;;;17.60;60.70;;;;;;5111301;28;20377;-85
2021/05/18 08:09:08;;;;;;;2.85;1.65;;;17.90;61.00;;;;;;5092115;28;20077;-83
2021/05/18 08:11:34;;;;;;;4.95;2.08;;;18.20;60.80;;;;;;5114727;28;20064;-81
2021/05/18 08:14:00;;;;;;;2.50;1.73;;;18.40;60.40;;;;;;5112840;28;20119;-87
2021/05/18 08:16:52;;;;;;;1.63;1.52;;;18.70;60.60;;;;;;5091369;28;20027;-88
2021/05/18 08:19:40;;;;;;;1.77;1.60;;;18.90;60.40;;;;;;5091100;28;20073;-83
2021/05/18 08:47:55;;;;;;;2.75;1.60;;;22.80;58.10;;;;;;5090840;28;20043;-88
2021/05/18 10:14:19;;;;;;;3.53;1.60;;;23.40;58.60;;;;;;5053203;28;20025;-84
2021/05/18 10:35:00;;;;;;;2.60;1.20;;;24.90;58.50;;;;;;4993068;28;20069;-83
2021/05/18 10:37:46;;;;;;;3.17;1.42;;;24.90;58.60;;;;;;5076144;28;20126;-85
2021/05/18 10:40:18;;;;;;;2.97;1.30;;;24.80;58.50;;;;;;5055732;28;20080;-90
2021/05/18 10:43:23;;;;;;;2.90;1.30;;;24.70;58.50;;;;;;5055961;28;20092;-85
2021/05/18 10:46:09;;;;;;;2.30;1.63;;;24.60;58.40;;;;;;5054770;28;20078;-85
2021/05/18 11:02:13;;;;;;;3.45;1.20;;;24.50;58.40;;;;;;5112248;28;20057;-84
2021/05/18 11:04:51;;;;;;;3.47;1.90;;;24.60;58.50;;;;;;5093633;28;20490;-85
2021/05/18 11:07:21;;;;;;;4.43;2.28;;;24.60;58.40;;;;;;5076313;28;20399;-84
2021/05/18 11:09:48;;;;;;;2.72;1.90;;;24.60;58.30;;;;;;5072373;28;20016;-86
2021/05/18 11:12:16;;;;;;;3.80;2.17;;;24.60;58.20;;;;;;5089037;28;20213;-82
2021/05/18 11:14:53;;;;;;;2.45;1.85;;;24.50;58.10;;;;;;5055981;28;20028;-84
2021/05/18 11:17:28;;;;;;;3.13;1.55;;;24.40;58.00;;;;;;5058137;28;20032;-89
2021/05/18 11:20:04;;;;;;;3.80;2.20;;;24.20;57.80;;;;;;5056845;28;20035;-81
2021/05/18 11:25:55;;;;;;;2.70;1.77;;;24.00;57.60;;;;;;5092395;28;20449;-84
2021/05/18 11:28:37;;;;;;;2.55;1.70;;;23.90;57.70;;;;;;5082475;27;20413;-78
2021/05/18 11:31:09;;;;;;;3.85;2.25;;;23.90;57.70;;;;;;5132354;27;20445;-80
2021/05/18 11:33:38;;;;;;;4.28;1.90;;;23.90;57.80;;;;;;5120326;27;20028;-80
2021/05/18 11:36:10;;;;;;;3.33;1.83;;;24.00;58.00;;;;;;5075402;28;20027;-87
2021/05/18 11:38:51;;;;;;;3.50;1.88;;;24.10;58.00;;;;;;5092323;28;20070;-85
2021/05/18 11:41:28;;;;;;;3.60;1.75;;;24.40;58.20;;;;;;5077513;28;20077;-90
2021/05/18 11:43:57;;;;;;;3.10;2.08;;;24.60;58.30;;;;;;5072626;28;20159;-84
2021/05/18 11:46:27;;;;;;;3.67;1.73;;;24.80;58.30;;;;;;5054165;28;20056;-81
2021/05/18 11:49:00;;;;;;;3.42;2.17;;;25.00;58.40;;;;;;5065577;28;20385;-80
2021/05/18 11:51:45;;;;;;;3.97;1.67;;;25.20;58.20;;;;;;5074496;28;20114;-84
2021/05/18 11:54:13;;;;;;;2.22;1.75;;;25.40;57.90;;;;;;5053896;28;20036;-83
2021/05/18 11:56:42;;;;;;;2.15;1.60;;;25.70;57.80;;;;;;5053364;28;20390;-80
2021/05/18 11:59:13;;;;;;;2.25;1.70;;;26.00;57.60;;;;;;5076660;28;20406;-83
2021/05/18 12:01:44;;;;;;;3.37;1.57;;;26.20;57.20;;;;;;5090366;28;20434;-83
2021/05/18 12:04:12;;;;;;;2.72;1.23;;;26.30;57.00;;;;;;5075482;28;20085;-88
2021/05/18 12:07:02;;;;;;;1.48;1.20;;;26.40;56.90;;;;;;5091847;28;20038;-84
2021/05/18 12:09:33;;;;;;;1.70;1.23;;;26.50;56.80;;;;;;5093406;28;20405;-82
2021/05/18 12:12:11;;;;;;;2.03;1.48;;;26.60;56.70;;;;;;5073808;28;20034;-84
2021/05/18 12:14:51;;;;;;;3.33;1.42;;;26.70;56.70;;;;;;5074041;28;20027;-82
2021/05/18 12:17:28;;;;;;;2.25;1.45;;;26.80;56.70;;;;;;5108783;28;20111;-84
2021/05/18 12:20:00;;;;;;;2.22;1.30;;;26.90;56.60;;;;;;5074417;28;20028;-85
2021/05/18 12:22:26;;;;;;;3.05;1.40;;;27.00;56.40;;;;;;5073489;28;20047;-87
2021/05/18 12:24:55;;;;;;;2.50;1.33;;;27.00;56.30;;;;;;5075003;28;20410;-85
2021/05/18 12:27:21;;;;;;;1.35;0.90;;;27.00;56.20;;;;;;5074893;28;20032;-86
2021/05/18 12:29:57;;;;;;;1.90;1.20;;;27.10;56.20;;;;;;5075503;28;20042;-86
2021/05/18 12:32:38;;;;;;;3.17;1.13;;;27.20;56.20;;;;;;5073898;28;20538;-86
2021/05/18 12:35:07;;;;;;;3.00;1.23;;;27.40;56.10;;;;;;5074214;28;20024;-83
2021/05/18 12:37:36;;;;;;;1.27;1.13;;;27.50;55.80;;;;;;5073664;28;20039;-85
2021/05/18 12:40:13;;;;;;;1.92;1.20;;;27.60;55.70;;;;;;5112700;27;20198;-86
2021/05/18 12:42:40;;;;;;;1.63;0.95;;;27.70;55.60;;;;;;5092201;27;20040;-83
2021/05/18 12:45:10;;;;;;;1.95;0.98;;;27.80;55.40;;;;;;5091373;28;20482;-87
2021/05/18 12:47:41;;;;;;;1.42;1.05;;;28.00;55.30;;;;;;5091891;28;20043;-83
2021/05/18 12:50:10;;;;;;;2.40;1.15;;;28.10;55.00;;;;;;5076533;28;20482;-88
2021/05/18 12:52:42;;;;;;;1.13;1.00;;;28.30;54.90;;;;;;5073549;28;20040;-86
2021/05/18 12:55:29;;;;;;;1.55;1.10;;;28.40;54.60;;;;;;5074429;28;20032;-83
2021/05/18 12:58:06;;;;;;;3.17;1.20;;;28.60;54.30;;;;;;5069695;28;20081;-84
2021/05/18 13:00:37;;;;;;;1.52;0.75;;;28.60;54.00;;;;;;5072355;28;20474;-87
2021/05/18 13:03:14;;;;;;;2.25;1.27;;;28.60;54.00;;;;;;5074008;28;20068;-88
2021/05/18 13:05:43;;;;;;;3.22;0.90;;;28.70;54.00;;;;;;5090592;28;20127;-85
2021/05/18 13:08:14;;;;;;;1.77;1.02;;;28.60;53.90;;;;;;5090011;28;20024;-83
2021/05/18 13:13:13;;;;;;;1.52;0.85;;;28.70;53.90;;;;;;5108652;28;20080;-83
2021/05/18 13:15:40;;;;;;;1.00;0.60;;;28.80;54.00;;;;;;5108682;28;20443;-86
2021/05/18 13:18:10;;;;;;;1.63;0.88;;;28.80;54.00;;;;;;5089604;28;20126;-87
2021/05/18 13:20:43;;;;;;;1.10;0.95;;;28.80;53.90;;;;;;5107932;28;20111;-87
2021/05/18 13:23:16;;;;;;;0.90;0.70;;;28.90;53.90;;;;;;5088926;28;20054;-84
2021/05/18 13:28:27;;;;;;;1.02;0.82;;;28.80;53.70;;;;;;5083218;28;20525;-88
2021/05/18 13:30:53;;;;;;;0.80;0.57;;;28.80;53.70;;;;;;5091535;28;20350;-83
2021/05/18 13:33:19;;;;;;;0.82;0.70;;;28.80;53.70;;;;;;5050676;28;20482;-86
2021/05/18 13:35:45;;;;;;;0.73;0.52;;;28.80;53.70;;;;;;5065843;28;20082;-83
2021/05/18 13:38:11;;;;;;;0.65;0.65;;;28.90;53.80;;;;;;5074670;28;20031;-84
2021/05/18 13:40:37;;;;;;;1.10;0.85;;;29.00;53.70;;;;;;5073830;28;20023;-84
2021/05/18 13:43:03;;;;;;;0.65;0.55;;;29.20;53.50;;;;;;5108161;28;20058;-83
2021/05/18 13:45:31;;;;;;;2.53;0.77;;;29.20;53.10;;;;;;5072185;28;20081;-84
2021/05/18 13:47:58;;;;;;;0.95;0.55;;;29.30;53.00;;;;;;5065199;28;20066;-86
2021/05/18 13:50:27;;;;;;;1.38;0.90;;;29.30;53.60;;;;;;5070318;28;20035;-85
2021/05/18 13:52:54;;;;;;;1.52;0.80;;;29.30;53.00;;;;;;5069496;28;20028;-84
2021/05/18 13:55:21;;;;;;;1.60;0.70;;;29.40;52.90;;;;;;5052652;28;20115;-87
2021/05/18 13:57:55;;;;;;;2.78;0.57;;;29.60;52.80;;;;;;5069855;28;20468;-84
2021/05/18 14:00:22;;;;;;;2.47;1.00;;;29.60;52.60;;;;;;5052822;28;20028;-85
2021/05/18 14:02:49;;;;;;;1.70;0.90;;;29.80;52.70;;;;;;5068653;28;20119;-84
2021/05/18 14:05:18;;;;;;;1.17;0.63;;;29.90;52.40;;;;;;5068723;28;20044;-85
2021/05/18 14:11:07;;;;;;;1.85;1.00;;;30.10;52.20;;;;;;5069220;28;20038;-83
2021/05/18 14:13:43;;;;;;;2.05;0.70;;;30.30;52.20;;;;;;5069419;28;20533;-84
2021/05/18 14:16:11;;;;;;;2.00;0.80;;;30.40;52.00;;;;;;5087168;28;20183;-81
2021/05/18 14:18:39;;;;;;;1.45;0.82;;;30.60;52.00;;;;;;5095450;28;20109;-83
2021/05/18 14:21:06;;;;;;;1.75;0.60;;;30.70;51.80;;;;;;5089067;28;20034;-83
2021/05/18 14:26:05;;;;;;;1.25;0.70;;;31.10;51.70;;;;;;5090598;28;20084;-83
2021/05/18 14:28:31;;;;;;;1.27;0.85;;;31.20;51.50;;;;;;5090561;28;20056;-85
2021/05/18 14:30:57;;;;;;;0.75;0.55;;;31.40;51.50;;;;;;5091429;28;20473;-83
2021/05/18 14:33:23;;;;;;;1.40;0.63;;;31.50;51.30;;;;;;5091296;28;20031;-84
2021/05/18 14:35:49;;;;;;;2.45;0.80;;;31.60;51.20;;;;;;5072136;28;20437;-85
2021/05/18 14:38:22;;;;;;;1.40;0.90;;;31.70;51.10;;;;;;5095924;28;20031;-86
2021/05/18 14:46:17;;;;;;;0.88;0.60;;;31.90;50.70;;;;;;5095357;28;20471;-84
2021/05/18 14:57:11;;;;;;;2.55;0.80;;;32.20;50.40;;;;;;5101891;28;20288;-87
2021/05/18 14:59:37;;;;;;;0.57;0.50;;;32.30;50.30;;;;;;5131467;27;20032;-92
2021/05/18 15:02:03;;;;;;;2.13;0.88;;;32.40;50.20;;;;;;5096747;27;20023;-85
2021/05/18 15:04:30;;;;;;;2.13;0.80;;;32.40;50.00;;;;;;5095734;28;20039;-87
2021/05/18 15:06:58;;;;;;;1.55;0.77;;;32.20;49.90;;;;;;5093277;28;20442;-87
2021/05/18 15:09:24;;;;;;;0.70;0.50;;;32.20;50.00;;;;;;5093341;28;20027;-87
2021/05/18 15:11:50;;;;;;;2.75;0.60;;;32.20;50.00;;;;;;5111565;28;20028;-85
2021/05/18 15:14:16;;;;;;;1.77;1.02;;;32.10;50.60;;;;;;5092509;28;20371;-82
2021/05/18 15:16:44;;;;;;;1.55;0.85;;;32.00;49.90;;;;;;5075592;28;20479;-84
2021/05/18 15:19:16;;;;;;;2.38;0.98;;;32.10;50.00;;;;;;5075930;28;20031;-88
2021/05/18 15:21:42;;;;;;;1.60;0.70;;;32.20;50.00;;;;;;5075403;28;20365;-85
2021/05/18 15:24:09;;;;;;;3.05;1.17;;;32.20;49.90;;;;;;5075250;28;20044;-86
2021/05/18 15:26:35;;;;;;;1.38;0.88;;;32.20;49.70;;;;;;5075416;28;20429;-83
2021/05/18 15:29:03;;;;;;;1.65;0.98;;;32.20;49.70;;;;;;5076291;28;20355;-88
2021/05/18 15:31:29;;;;;;;2.35;1.00;;;32.10;49.70;;;;;;5076473;28;20051;-83
2021/05/18 15:33:55;;;;;;;3.92;1.15;;;32.10;49.70;;;;;;5075031;28;20028;-88
2021/05/18 15:36:21;;;;;;;2.30;0.85;;;32.10;49.60;;;;;;5077987;28;20399;-83
2021/05/18 15:38:48;;;;;;;1.80;0.95;;;32.10;49.60;;;;;;5074872;28;20028;-85
2021/05/18 15:41:15;;;;;;;2.22;0.82;;;32.00;49.50;;;;;;5074299;28;20481;-84
2021/05/18 15:43:44;;;;;;;1.05;0.77;;;32.10;49.60;;;;;;5084563;27;20131;-84
2021/05/18 15:46:12;;;;;;;2.78;1.00;;;32.10;49.60;;;;;;5095634;27;20039;-84
2021/05/18 15:48:38;;;;;;;4.22;1.10;;;32.10;49.60;;;;;;5102532;28;20032;-84
2021/05/18 15:51:05;;;;;;;2.50;1.00;;;32.10;49.60;;;;;;5094572;28;20027;-82
2021/05/18 15:53:32;;;;;;;1.98;0.85;;;32.10;49.70;;;;;;5075629;28;20463;-87
2021/05/18 15:55:58;;;;;;;5.85;1.98;;;32.10;49.80;;;;;;5070094;28;20043;-84
2021/05/18 15:58:25;;;;;;;8.20;1.90;;;32.00;47.40;;;;;;5075586;28;20036;-82
2021/05/18 16:00:53;;;;;;;6.60;1.58;;;31.60;45.60;;;;;;5076873;28;20063;-87
2021/05/18 16:03:20;;;;;;;8.80;1.98;;;31.20;44.70;;;;;;5077942;28;20042;-82
2021/05/18 16:05:46;;;;;;;12.18;2.67;;;30.70;43.80;;;;;;5079106;28;20032;-81
2021/05/18 16:11:04;;;;;;;5.20;2.00;;;29.90;43.20;;;;;;5090896;28;20032;-84
2021/05/18 16:13:33;;;;;;;6.38;1.75;;;29.40;42.80;;;;;;5091415;28;20031;-81
2021/05/18 16:16:11;;;;;;;4.80;1.38;;;29.00;43.10;;;;;;5075704;28;20111;-82
2021/05/18 16:18:41;;;;;;;12.63;2.60;;;28.50;42.70;;;;;;5074053;28;20039;-83
2021/05/18 16:21:08;;;;;;;8.15;2.38;;;28.30;43.00;;;;;;5075098;28;20031;-79
2021/05/18 16:23:37;;;;;;;10.43;2.28;;;27.90;42.80;;;;;;5074699;28;20126;-79
2021/05/18 16:26:05;;;;;;;6.75;1.98;;;27.60;42.90;;;;;;5091457;28;20499;-80
2021/05/18 16:28:32;;;;;;;9.70;3.05;;;27.40;43.00;;;;;;5074773;28;20062;-81
2021/05/18 16:30:58;;;;;;;6.57;2.40;;;27.10;43.10;;;;;;5074371;28;20028;-79
2021/05/18 16:33:25;;;;;;;6.32;1.90;;;26.80;43.80;;;;;;5074357;28;20032;-84
2021/05/18 16:35:52;;;;;;;9.52;2.63;;;26.50;43.20;;;;;;5073504;28;20035;-78
2021/05/18 16:38:18;;;;;;;6.07;2.47;;;26.20;43.40;;;;;;5073971;28;20085;-79
2021/05/18 16:40:44;;;;;;;8.30;2.53;;;25.90;43.50;;;;;;5092863;28;20024;-78
2021/05/18 16:43:10;;;;;;;8.13;2.20;;;25.70;43.60;;;;;;5077555;28;20027;-80
2021/05/18 16:45:36;;;;;;;6.78;2.22;;;25.50;43.70;;;;;;5087428;28;20104;-79
2021/05/18 16:48:03;;;;;;;7.82;3.00;;;25.30;43.70;;;;;;5113230;27;20138;-81
2021/05/18 16:50:30;;;;;;;8.57;2.25;;;25.10;43.80;;;;;;5116879;28;20035;-80
2021/05/18 16:52:56;;;;;;;9.38;2.67;;;25.00;44.10;;;;;;5098610;28;20024;-82
2021/05/18 16:55:22;;;;;;;10.27;2.88;;;24.80;43.80;;;;;;5096638;28;20526;-78
2021/05/18 16:57:49;;;;;;;7.15;2.65;;;24.60;43.50;;;;;;5112584;28;20542;-79
2021/05/18 17:00:15;;;;;;;10.45;2.33;;;24.50;43.70;;;;;;5113564;28;20027;-78
2021/05/18 17:02:41;;;;;;;12.93;2.58;;;24.30;43.50;;;;;;5095071;28;20035;-78
2021/05/18 17:05:08;;;;;;;8.15;2.08;;;24.20;43.50;;;;;;5112640;28;20379;-80
2021/05/18 17:07:34;;;;;;;6.25;2.50;;;24.00;43.40;;;;;;5093978;28;20466;-80
2021/05/18 17:10:01;;;;;;;9.13;2.63;;;23.90;43.40;;;;;;5094482;28;20050;-80
2021/05/18 17:12:27;;;;;;;7.57;2.40;;;23.70;43.20;;;;;;5094232;28;20521;-81
2021/05/18 17:14:53;;;;;;;6.63;2.45;;;23.50;43.10;;;;;;5091529;28;20036;-79
2021/05/18 17:17:19;;;;;;;9.85;3.40;;;23.40;43.30;;;;;;5110730;28;20026;-79
2021/05/18 17:19:45;;;;;;;8.77;2.85;;;23.20;43.20;;;;;;5091850;28;20031;-78
2021/05/18 17:22:15;;;;;;;8.73;2.67;;;23.10;43.40;;;;;;5075006;28;20385;-79
2021/05/18 17:24:41;;;;;;;8.77;2.92;;;22.90;43.20;;;;;;5075168;28;20046;-78
2021/05/18 17:27:08;;;;;;;9.25;2.38;;;22.80;43.40;;;;;;5074824;28;20027;-77
2021/05/18 17:29:35;;;;;;;6.80;2.47;;;22.60;43.30;;;;;;5075477;28;20055;-81
2021/05/18 17:32:10;;;;;;;9.05;2.47;;;22.50;43.40;;;;;;5111699;28;20032;-85
2021/05/18 17:34:37;;;;;;;11.52;2.42;;;22.40;43.50;;;;;;5075736;28;20023;-80
2021/05/18 17:37:04;;;;;;;10.55;3.42;;;22.30;43.60;;;;;;5074717;28;20027;-80
2021/05/18 17:39:30;;;;;;;10.18;3.13;;;22.20;43.60;;;;;;5075410;28;20032;-81
2021/05/18 17:41:56;;;;;;;9.23;2.63;;;22.10;43.70;;;;;;5075016;28;20062;-79
2021/05/18 17:44:25;;;;;;;9.68;2.90;;;21.90;43.60;;;;;;5089642;28;20036;-80
2021/05/18 17:46:51;;;;;;;7.75;2.38;;;21.80;43.80;;;;;;5088287;28;20486;-81
2021/05/18 17:49:20;;;;;;;7.38;3.05;;;21.70;44.00;;;;;;5088562;28;20036;-81
2021/05/18 17:51:46;;;;;;;13.63;4.03;;;21.60;44.10;;;;;;5107378;28;20386;-82
2021/05/18 17:54:12;;;;;;;10.68;2.63;;;21.40;43.90;;;;;;5071852;28;20532;-80
2021/05/18 17:56:38;;;;;;;8.45;2.50;;;21.30;44.00;;;;;;5108548;28;20518;-81
2021/05/18 17:59:05;;;;;;;9.15;2.85;;;21.20;44.10;;;;;;5075887;28;20027;-80
2021/05/18 18:01:33;;;;;;;13.40;3.45;;;21.10;44.20;;;;;;5111163;28;20028;-82
2021/05/18 18:03:59;;;;;;;9.45;3.00;;;20.90;44.10;;;;;;5111109;28;20445;-86
2021/05/18 18:06:25;;;;;;;7.88;2.42;;;20.80;44.20;;;;;;5111219;28;20047;-83
2021/05/18 18:08:51;;;;;;;15.07;3.08;;;20.60;44.20;;;;;;5075829;28;20041;-82
2021/05/18 18:11:17;;;;;;;10.02;3.50;;;20.50;44.30;;;;;;5092257;28;20164;-81
2021/05/18 18:13:43;;;;;;;9.65;2.80;;;20.40;44.30;;;;;;5102078;27;20464;-83
2021/05/18 18:16:10;;;;;;;10.00;2.88;;;20.30;44.40;;;;;;5095780;27;20382;-82
2021/05/18 18:18:38;;;;;;;9.18;3.33;;;20.10;44.40;;;;;;5088887;28;20031;-82
2021/05/18 18:21:06;;;;;;;13.70;3.40;;;20.10;44.70;;;;;;5076880;28;20478;-81
2021/05/18 18:23:33;;;;;;;14.15;3.60;;;19.90;44.60;;;;;;5051598;28;20339;-82
2021/05/18 18:25:59;;;;;;;11.70;3.65;;;19.80;44.70;;;;;;5083915;28;20435;-83
2021/05/18 18:28:26;;;;;;;9.20;2.75;;;19.70;44.90;;;;;;5069330;28;20357;-82
2021/05/18 18:30:52;;;;;;;15.02;4.32;;;19.60;44.90;;;;;;5074367;28;20273;-81
2021/05/18 18:33:22;;;;;;;9.27;3.22;;;19.50;45.00;;;;;;5075452;28;20031;-83
2021/05/18 18:35:49;;;;;;;13.30;2.70;;;19.40;45.10;;;;;;5074764;28;20065;-82
2021/05/18 18:38:17;;;;;;;9.00;3.15;;;19.30;45.10;;;;;;5075296;28;20027;-82
2021/05/18 18:40:44;;;;;;;35.33;13.77;;;19.20;45.10;;;;;;5076930;28;20027;-81